sensor_id;sensor_type;location;lat;lon;timestamp;P1;durP1;ratioP1;P2;durP2;ratioP2
48042;SDS011;33988;47.992;8.820;2022-12-07T00:01:44;4.97;;;3.40;;
48042;SDS011;33988;47.992;8.820;2022-12-07T00:04:13;6.05;;;3.53;;
48042;SDS011;33988;47.992;8.820;2022-12-07T00:06:45;4.97;;;2.90;;
48042;SDS011;33988;47.992;8.820;2022-12-07T00:09:20;4.45;;;3.00;;
48042;SDS011;33988;47.992;8.820;2022-12-07T00:11:49;3.65;;;2.40;;
48042;SDS011;33988;47.992;8.820;2022-12-07T00:14:18;4.72;;;2.80;;
48042;SDS011;33988;47.992;8.820;2022-12-07T00:16:50;3.35;;;2.50;;
48042;SDS011;33988;47.992;8.820;2022-12-07T00:19:25;5.32;;;3.22;;
48042;SDS011;33988;47.992;8.820;2022-12-07T00:21:52;6.45;;;3.33;;
48042;SDS011;33988;47.992;8.820;2022-12-07T00:24:18;4.05;;;2.67;;
48042;SDS011;33988;47.992;8.820;2022-12-07T00:26:50;5.40;;;3.03;;
48042;SDS011;33988;47.992;8.820;2022-12-07T00:29:18;4.90;;;3.20;;
48042;SDS011;33988;47.992;8.820;2022-12-07T00:31:50;6.07;;;3.25;;
48042;SDS011;33988;47.992;8.820;2022-12-07T00:34:22;6.45;;;2.92;;
48042;SDS011;33988;47.992;8.820;2022-12-07T00:36:52;6.45;;;3.38;;
48042;SDS011;33988;47.992;8.820;2022-12-07T00:39:21;6.40;;;3.65;;
48042;SDS011;33988;47.992;8.820;2022-12-07T00:41:50;5.43;;;3.40;;
48042;SDS011;33988;47.992;8.820;2022-12-07T00:44:19;4.95;;;3.42;;
48042;SDS011;33988;47.992;8.820;2022-12-07T00:46:46;4.97;;;3.25;;
48042;SDS011;33988;47.992;8.820;2022-12-07T00:49:13;6.05;;;3.47;;
48042;SDS011;33988;47.992;8.820;2022-12-07T00:51:40;4.57;;;3.17;;
48042;SDS011;33988;47.992;8.820;2022-12-07T00:54:09;4.65;;;3.65;;
48042;SDS011;33988;47.992;8.820;2022-12-07T00:56:36;5.22;;;3.50;;
48042;SDS011;33988;47.992;8.820;2022-12-07T00:59:03;5.75;;;3.38;;
48042;SDS011;33988;47.992;8.820;2022-12-07T01:01:32;4.30;;;3.00;;
48042;SDS011;33988;47.992;8.820;2022-12-07T01:04:07;3.78;;;2.65;;
48042;SDS011;33988;47.992;8.820;2022-12-07T01:06:40;4.38;;;2.97;;
48042;SDS011;33988;47.992;8.820;2022-12-07T01:11:44;3.97;;;2.45;;
48042;SDS011;33988;47.992;8.820;2022-12-07T01:14:11;5.63;;;3.38;;
48042;SDS011;33988;47.992;8.820;2022-12-07T01:16:38;4.00;;;2.83;;
48042;SDS011;33988;47.992;8.820;2022-12-07T01:19:06;5.05;;;3.05;;
48042;SDS011;33988;47.992;8.820;2022-12-07T01:21:33;5.28;;;3.38;;
48042;SDS011;33988;47.992;8.820;2022-12-07T01:24:04;4.88;;;3.05;;
48042;SDS011;33988;47.992;8.820;2022-12-07T01:26:33;3.25;;;2.33;;
48042;SDS011;33988;47.992;8.820;2022-12-07T01:29:02;5.65;;;3.50;;
48042;SDS011;33988;47.992;8.820;2022-12-07T01:31:32;4.80;;;3.13;;
48042;SDS011;33988;47.992;8.820;2022-12-07T01:34:02;5.38;;;3.65;;
48042;SDS011;33988;47.992;8.820;2022-12-07T01:36:30;4.55;;;3.00;;
48042;SDS011;33988;47.992;8.820;2022-12-07T01:39:06;5.00;;;2.90;;
48042;SDS011;33988;47.992;8.820;2022-12-07T01:41:39;5.15;;;3.13;;
48042;SDS011;33988;47.992;8.820;2022-12-07T01:44:19;5.20;;;3.03;;
48042;SDS011;33988;47.992;8.820;2022-12-07T01:46:56;3.78;;;2.90;;
48042;SDS011;33988;47.992;8.820;2022-12-07T01:52:07;3.53;;;2.38;;
48042;SDS011;33988;47.992;8.820;2022-12-07T01:54:52;4.40;;;2.53;;
48042;SDS011;33988;47.992;8.820;2022-12-07T01:57:30;3.45;;;2.63;;
48042;SDS011;33988;47.992;8.820;2022-12-07T02:00:03;4.70;;;3.03;;
48042;SDS011;33988;47.992;8.820;2022-12-07T02:02:35;4.05;;;2.83;;
48042;SDS011;33988;47.992;8.820;2022-12-07T02:05:09;3.00;;;2.05;;
48042;SDS011;33988;47.992;8.820;2022-12-07T02:07:37;2.92;;;1.92;;
48042;SDS011;33988;47.992;8.820;2022-12-07T02:12:47;6.00;;;3.25;;
48042;SDS011;33988;47.992;8.820;2022-12-07T02:15:22;6.45;;;3.70;;
48042;SDS011;33988;47.992;8.820;2022-12-07T02:18:01;6.35;;;3.45;;
48042;SDS011;33988;47.992;8.820;2022-12-07T02:35:32;3.85;;;2.55;;
48042;SDS011;33988;47.992;8.820;2022-12-07T02:38:04;4.05;;;2.75;;
48042;SDS011;33988;47.992;8.820;2022-12-07T02:40:44;5.13;;;2.90;;
48042;SDS011;33988;47.992;8.820;2022-12-07T02:43:21;3.92;;;2.47;;
48042;SDS011;33988;47.992;8.820;2022-12-07T02:46:01;3.97;;;2.50;;
48042;SDS011;33988;47.992;8.820;2022-12-07T02:48:36;4.65;;;2.85;;
48042;SDS011;33988;47.992;8.820;2022-12-07T02:51:05;3.30;;;2.15;;
48042;SDS011;33988;47.992;8.820;2022-12-07T02:53:34;4.13;;;3.05;;
48042;SDS011;33988;47.992;8.820;2022-12-07T03:13:03;4.22;;;2.75;;
48042;SDS011;33988;47.992;8.820;2022-12-07T03:18:24;2.60;;;1.65;;
48042;SDS011;33988;47.992;8.820;2022-12-07T03:20:56;3.20;;;2.08;;
48042;SDS011;33988;47.992;8.820;2022-12-07T03:23:30;2.97;;;2.22;;
48042;SDS011;33988;47.992;8.820;2022-12-07T03:26:03;3.78;;;2.15;;
48042;SDS011;33988;47.992;8.820;2022-12-07T03:31:11;2.35;;;1.83;;
48042;SDS011;33988;47.992;8.820;2022-12-07T03:34:11;2.20;;;1.77;;
48042;SDS011;33988;47.992;8.820;2022-12-07T03:36:49;2.45;;;1.90;;
48042;SDS011;33988;47.992;8.820;2022-12-07T03:42:02;4.63;;;2.42;;
48042;SDS011;33988;47.992;8.820;2022-12-07T03:44:34;2.55;;;1.92;;
48042;SDS011;33988;47.992;8.820;2022-12-07T03:52:42;2.58;;;1.88;;
48042;SDS011;33988;47.992;8.820;2022-12-07T03:57:49;2.55;;;1.98;;
48042;SDS011;33988;47.992;8.820;2022-12-07T04:00:21;2.92;;;2.00;;
48042;SDS011;33988;47.992;8.820;2022-12-07T04:02:48;2.30;;;2.00;;
48042;SDS011;33988;47.992;8.820;2022-12-07T04:05:21;2.85;;;1.88;;
48042;SDS011;33988;47.992;8.820;2022-12-07T04:07:51;2.08;;;1.70;;
48042;SDS011;33988;47.992;8.820;2022-12-07T04:10:20;2.78;;;1.77;;
48042;SDS011;33988;47.992;8.820;2022-12-07T04:15:20;2.75;;;1.80;;
48042;SDS011;33988;47.992;8.820;2022-12-07T04:17:47;3.38;;;1.70;;
48042;SDS011;33988;47.992;8.820;2022-12-07T04:20:14;2.17;;;1.60;;
48042;SDS011;33988;47.992;8.820;2022-12-07T04:22:43;2.28;;;1.77;;
48042;SDS011;33988;47.992;8.820;2022-12-07T04:25:10;2.55;;;1.83;;
48042;SDS011;33988;47.992;8.820;2022-12-07T04:27:37;2.50;;;1.95;;
48042;SDS011;33988;47.992;8.820;2022-12-07T04:30:08;2.72;;;2.00;;
48042;SDS011;33988;47.992;8.820;2022-12-07T04:32:36;3.08;;;1.60;;
48042;SDS011;33988;47.992;8.820;2022-12-07T04:35:03;3.00;;;1.95;;
48042;SDS011;33988;47.992;8.820;2022-12-07T04:37:31;2.63;;;1.88;;
48042;SDS011;33988;47.992;8.820;2022-12-07T04:39:58;3.67;;;2.17;;
48042;SDS011;33988;47.992;8.820;2022-12-07T04:42:25;2.22;;;1.63;;
48042;SDS011;33988;47.992;8.820;2022-12-07T04:44:52;3.30;;;2.25;;
48042;SDS011;33988;47.992;8.820;2022-12-07T04:47:20;2.13;;;1.58;;
48042;SDS011;33988;47.992;8.820;2022-12-07T04:49:47;3.05;;;2.00;;
48042;SDS011;33988;47.992;8.820;2022-12-07T04:52:16;3.25;;;2.28;;
48042;SDS011;33988;47.992;8.820;2022-12-07T04:54:43;2.40;;;1.85;;
48042;SDS011;33988;47.992;8.820;2022-12-07T04:57:10;3.88;;;2.25;;
48042;SDS011;33988;47.992;8.820;2022-12-07T04:59:37;3.40;;;2.40;;
48042;SDS011;33988;47.992;8.820;2022-12-07T05:02:10;3.33;;;2.38;;
48042;SDS011;33988;47.992;8.820;2022-12-07T05:04:37;4.40;;;2.53;;
48042;SDS011;33988;47.992;8.820;2022-12-07T05:07:04;4.35;;;2.38;;
48042;SDS011;33988;47.992;8.820;2022-12-07T05:09:31;2.80;;;2.30;;
48042;SDS011;33988;47.992;8.820;2022-12-07T05:11:58;3.88;;;2.35;;
48042;SDS011;33988;47.992;8.820;2022-12-07T05:14:25;3.65;;;2.65;;
48042;SDS011;33988;47.992;8.820;2022-12-07T05:16:54;2.92;;;2.10;;
48042;SDS011;33988;47.992;8.820;2022-12-07T05:19:24;2.60;;;1.98;;
48042;SDS011;33988;47.992;8.820;2022-12-07T05:21:52;3.25;;;2.25;;
48042;SDS011;33988;47.992;8.820;2022-12-07T05:24:19;3.00;;;2.40;;
48042;SDS011;33988;47.992;8.820;2022-12-07T05:26:46;2.88;;;2.13;;
48042;SDS011;33988;47.992;8.820;2022-12-07T05:29:16;2.85;;;2.20;;
48042;SDS011;33988;47.992;8.820;2022-12-07T05:31:44;2.75;;;2.25;;
48042;SDS011;33988;47.992;8.820;2022-12-07T05:34:13;3.42;;;2.35;;
48042;SDS011;33988;47.992;8.820;2022-12-07T05:36:40;2.60;;;2.03;;
48042;SDS011;33988;47.992;8.820;2022-12-07T05:39:07;3.13;;;2.42;;
48042;SDS011;33988;47.992;8.820;2022-12-07T05:41:34;2.70;;;2.22;;
48042;SDS011;33988;47.992;8.820;2022-12-07T05:44:24;2.38;;;2.00;;
48042;SDS011;33988;47.992;8.820;2022-12-07T05:49:21;2.15;;;1.67;;
48042;SDS011;33988;47.992;8.820;2022-12-07T05:51:48;3.20;;;2.20;;
48042;SDS011;33988;47.992;8.820;2022-12-07T05:54:16;3.53;;;2.55;;
48042;SDS011;33988;47.992;8.820;2022-12-07T05:56:46;3.72;;;2.33;;
48042;SDS011;33988;47.992;8.820;2022-12-07T05:59:15;2.53;;;1.92;;
48042;SDS011;33988;47.992;8.820;2022-12-07T06:01:51;3.88;;;2.75;;
48042;SDS011;33988;47.992;8.820;2022-12-07T06:04:30;2.88;;;2.05;;
48042;SDS011;33988;47.992;8.820;2022-12-07T06:07:06;9.85;;;2.92;;
48042;SDS011;33988;47.992;8.820;2022-12-07T06:09:34;3.33;;;2.40;;
48042;SDS011;33988;47.992;8.820;2022-12-07T06:12:02;3.03;;;2.47;;
48042;SDS011;33988;47.992;8.820;2022-12-07T06:14:49;3.38;;;2.22;;
48042;SDS011;33988;47.992;8.820;2022-12-07T06:17:16;3.65;;;2.78;;
48042;SDS011;33988;47.992;8.820;2022-12-07T06:19:43;3.85;;;2.65;;
48042;SDS011;33988;47.992;8.820;2022-12-07T06:22:10;4.00;;;2.97;;
48042;SDS011;33988;47.992;8.820;2022-12-07T06:24:38;3.67;;;2.53;;
48042;SDS011;33988;47.992;8.820;2022-12-07T06:27:10;3.88;;;2.83;;
48042;SDS011;33988;47.992;8.820;2022-12-07T06:29:37;2.95;;;2.53;;
48042;SDS011;33988;47.992;8.820;2022-12-07T06:32:07;4.75;;;3.17;;
48042;SDS011;33988;47.992;8.820;2022-12-07T06:34:34;3.92;;;3.13;;
48042;SDS011;33988;47.992;8.820;2022-12-07T06:37:01;4.10;;;3.28;;
48042;SDS011;33988;47.992;8.820;2022-12-07T06:39:30;3.53;;;2.60;;
48042;SDS011;33988;47.992;8.820;2022-12-07T06:42:00;3.40;;;2.78;;
48042;SDS011;33988;47.992;8.820;2022-12-07T06:44:27;4.18;;;3.15;;
48042;SDS011;33988;47.992;8.820;2022-12-07T06:46:56;2.90;;;2.42;;
48042;SDS011;33988;47.992;8.820;2022-12-07T06:49:43;4.25;;;2.50;;
48042;SDS011;33988;47.992;8.820;2022-12-07T06:52:10;3.58;;;2.58;;
48042;SDS011;33988;47.992;8.820;2022-12-07T06:54:39;4.85;;;3.42;;
48042;SDS011;33988;47.992;8.820;2022-12-07T06:57:05;4.03;;;2.60;;
48042;SDS011;33988;47.992;8.820;2022-12-07T06:59:32;3.83;;;2.47;;
48042;SDS011;33988;47.992;8.820;2022-12-07T07:02:01;3.95;;;2.80;;
48042;SDS011;33988;47.992;8.820;2022-12-07T07:04:28;4.18;;;3.08;;
48042;SDS011;33988;47.992;8.820;2022-12-07T07:06:55;2.85;;;2.53;;
48042;SDS011;33988;47.992;8.820;2022-12-07T07:09:25;3.90;;;2.72;;
48042;SDS011;33988;47.992;8.820;2022-12-07T07:11:53;3.67;;;2.65;;
48042;SDS011;33988;47.992;8.820;2022-12-07T07:14:22;4.15;;;2.80;;
48042;SDS011;33988;47.992;8.820;2022-12-07T07:16:49;3.50;;;2.58;;
48042;SDS011;33988;47.992;8.820;2022-12-07T07:19:16;4.15;;;2.80;;
48042;SDS011;33988;47.992;8.820;2022-12-07T07:21:45;4.05;;;2.95;;
48042;SDS011;33988;47.992;8.820;2022-12-07T07:24:14;3.05;;;2.42;;
48042;SDS011;33988;47.992;8.820;2022-12-07T07:26:46;4.32;;;2.63;;
48042;SDS011;33988;47.992;8.820;2022-12-07T07:29:15;4.30;;;3.05;;
48042;SDS011;33988;47.992;8.820;2022-12-07T07:31:42;4.28;;;2.80;;
48042;SDS011;33988;47.992;8.820;2022-12-07T07:34:09;4.13;;;3.05;;
48042;SDS011;33988;47.992;8.820;2022-12-07T07:36:36;4.13;;;2.80;;
48042;SDS011;33988;47.992;8.820;2022-12-07T07:39:05;3.55;;;2.70;;
48042;SDS011;33988;47.992;8.820;2022-12-07T07:41:35;5.85;;;3.97;;
48042;SDS011;33988;47.992;8.820;2022-12-07T07:44:02;4.75;;;3.15;;
48042;SDS011;33988;47.992;8.820;2022-12-07T07:46:31;4.03;;;2.90;;
48042;SDS011;33988;47.992;8.820;2022-12-07T07:48:59;5.93;;;2.95;;
48042;SDS011;33988;47.992;8.820;2022-12-07T07:51:26;3.75;;;3.08;;
48042;SDS011;33988;47.992;8.820;2022-12-07T07:53:56;3.53;;;2.60;;
48042;SDS011;33988;47.992;8.820;2022-12-07T07:56:27;3.08;;;2.47;;
48042;SDS011;33988;47.992;8.820;2022-12-07T07:58:55;4.03;;;2.78;;
48042;SDS011;33988;47.992;8.820;2022-12-07T08:01:24;4.80;;;3.28;;
48042;SDS011;33988;47.992;8.820;2022-12-07T08:03:51;4.18;;;3.50;;
48042;SDS011;33988;47.992;8.820;2022-12-07T08:06:20;5.32;;;3.22;;
48042;SDS011;33988;47.992;8.820;2022-12-07T08:08:47;4.78;;;3.00;;
48042;SDS011;33988;47.992;8.820;2022-12-07T08:11:16;3.33;;;2.75;;
48042;SDS011;33988;47.992;8.820;2022-12-07T08:13:45;4.32;;;3.17;;
48042;SDS011;33988;47.992;8.820;2022-12-07T08:16:15;5.18;;;3.53;;
48042;SDS011;33988;47.992;8.820;2022-12-07T08:18:47;4.57;;;3.28;;
48042;SDS011;33988;47.992;8.820;2022-12-07T08:21:16;8.20;;;3.92;;
48042;SDS011;33988;47.992;8.820;2022-12-07T08:23:43;4.63;;;3.40;;
48042;SDS011;33988;47.992;8.820;2022-12-07T08:26:15;4.68;;;3.63;;
48042;SDS011;33988;47.992;8.820;2022-12-07T08:28:45;5.03;;;3.85;;
48042;SDS011;33988;47.992;8.820;2022-12-07T08:31:15;6.00;;;3.92;;
48042;SDS011;33988;47.992;8.820;2022-12-07T08:33:48;5.30;;;4.10;;
48042;SDS011;33988;47.992;8.820;2022-12-07T08:36:17;4.55;;;3.47;;
48042;SDS011;33988;47.992;8.820;2022-12-07T08:38:49;6.10;;;4.22;;
48042;SDS011;33988;47.992;8.820;2022-12-07T08:41:40;6.53;;;4.53;;
48042;SDS011;33988;47.992;8.820;2022-12-07T08:44:07;6.18;;;4.55;;
48042;SDS011;33988;47.992;8.820;2022-12-07T08:46:38;6.57;;;4.15;;
48042;SDS011;33988;47.992;8.820;2022-12-07T08:49:24;7.85;;;4.68;;
48042;SDS011;33988;47.992;8.820;2022-12-07T08:52:05;5.45;;;3.63;;
48042;SDS011;33988;47.992;8.820;2022-12-07T08:54:35;6.40;;;4.18;;
48042;SDS011;33988;47.992;8.820;2022-12-07T08:57:09;6.50;;;4.18;;
48042;SDS011;33988;47.992;8.820;2022-12-07T08:59:39;5.70;;;3.85;;
48042;SDS011;33988;47.992;8.820;2022-12-07T09:02:08;5.47;;;4.00;;
48042;SDS011;33988;47.992;8.820;2022-12-07T09:04:38;5.07;;;3.80;;
48042;SDS011;33988;47.992;8.820;2022-12-07T09:07:05;6.85;;;4.60;;
48042;SDS011;33988;47.992;8.820;2022-12-07T09:09:33;6.32;;;4.53;;
48042;SDS011;33988;47.992;8.820;2022-12-07T09:12:04;7.65;;;4.43;;
48042;SDS011;33988;47.992;8.820;2022-12-07T09:14:31;5.57;;;3.70;;
48042;SDS011;33988;47.992;8.820;2022-12-07T09:17:07;4.80;;;3.65;;
48042;SDS011;33988;47.992;8.820;2022-12-07T09:19:36;4.75;;;3.08;;
48042;SDS011;33988;47.992;8.820;2022-12-07T09:22:04;4.70;;;3.53;;
48042;SDS011;33988;47.992;8.820;2022-12-07T09:24:31;6.18;;;4.18;;
48042;SDS011;33988;47.992;8.820;2022-12-07T09:26:58;5.45;;;3.88;;
48042;SDS011;33988;47.992;8.820;2022-12-07T09:29:25;5.43;;;3.92;;
48042;SDS011;33988;47.992;8.820;2022-12-07T09:31:53;4.28;;;3.30;;
48042;SDS011;33988;47.992;8.820;2022-12-07T09:34:20;4.38;;;3.40;;
48042;SDS011;33988;47.992;8.820;2022-12-07T09:36:48;4.80;;;3.70;;
48042;SDS011;33988;47.992;8.820;2022-12-07T09:39:17;5.95;;;4.55;;
48042;SDS011;33988;47.992;8.820;2022-12-07T09:41:47;6.57;;;4.68;;
48042;SDS011;33988;47.992;8.820;2022-12-07T09:44:18;5.45;;;4.15;;
48042;SDS011;33988;47.992;8.820;2022-12-07T09:46:53;5.43;;;3.58;;
48042;SDS011;33988;47.992;8.820;2022-12-07T09:49:27;4.25;;;3.22;;
48042;SDS011;33988;47.992;8.820;2022-12-07T09:52:16;4.25;;;3.25;;
48042;SDS011;33988;47.992;8.820;2022-12-07T09:54:48;4.72;;;3.17;;
48042;SDS011;33988;47.992;8.820;2022-12-07T09:57:17;4.60;;;3.38;;
48042;SDS011;33988;47.992;8.820;2022-12-07T09:59:56;4.65;;;3.20;;
48042;SDS011;33988;47.992;8.820;2022-12-07T10:02:37;3.50;;;2.78;;
48042;SDS011;33988;47.992;8.820;2022-12-07T10:05:12;4.57;;;3.17;;
48042;SDS011;33988;47.992;8.820;2022-12-07T10:07:49;4.72;;;2.95;;
48042;SDS011;33988;47.992;8.820;2022-12-07T10:10:26;3.72;;;3.00;;
48042;SDS011;33988;47.992;8.820;2022-12-07T10:13:06;4.72;;;3.38;;
48042;SDS011;33988;47.992;8.820;2022-12-07T10:15:44;5.57;;;3.67;;
48042;SDS011;33988;47.992;8.820;2022-12-07T10:29:02;4.38;;;2.72;;
48042;SDS011;33988;47.992;8.820;2022-12-07T10:31:44;5.30;;;3.67;;
48042;SDS011;33988;47.992;8.820;2022-12-07T10:34:26;4.75;;;3.33;;
48042;SDS011;33988;47.992;8.820;2022-12-07T10:44:50;4.93;;;4.03;;
48042;SDS011;33988;47.992;8.820;2022-12-07T10:50:47;7.65;;;4.13;;
48042;SDS011;33988;47.992;8.820;2022-12-07T10:59:14;5.88;;;4.22;;
48042;SDS011;33988;47.992;8.820;2022-12-07T11:02:29;4.85;;;3.47;;
48042;SDS011;33988;47.992;8.820;2022-12-07T11:11:34;4.50;;;3.28;;
48042;SDS011;33988;47.992;8.820;2022-12-07T11:14:31;4.43;;;2.95;;
48042;SDS011;33988;47.992;8.820;2022-12-07T11:17:14;3.63;;;2.88;;
48042;SDS011;33988;47.992;8.820;2022-12-07T11:22:51;3.45;;;2.65;;
48042;SDS011;33988;47.992;8.820;2022-12-07T11:38:38;2.65;;;2.08;;
48042;SDS011;33988;47.992;8.820;2022-12-07T11:41:20;3.15;;;2.42;;
48042;SDS011;33988;47.992;8.820;2022-12-07T11:46:39;2.97;;;2.35;;
48042;SDS011;33988;47.992;8.820;2022-12-07T11:52:30;3.25;;;2.20;;
48042;SDS011;33988;47.992;8.820;2022-12-07T11:55:01;3.05;;;2.13;;
48042;SDS011;33988;47.992;8.820;2022-12-07T11:57:38;3.13;;;2.30;;
48042;SDS011;33988;47.992;8.820;2022-12-07T12:00:16;2.80;;;2.35;;
48042;SDS011;33988;47.992;8.820;2022-12-07T12:05:35;2.95;;;2.28;;
48042;SDS011;33988;47.992;8.820;2022-12-07T12:08:18;3.42;;;2.20;;
48042;SDS011;33988;47.992;8.820;2022-12-07T12:20:36;2.15;;;1.83;;
48042;SDS011;33988;47.992;8.820;2022-12-07T12:23:14;1.80;;;1.40;;
48042;SDS011;33988;47.992;8.820;2022-12-07T12:25:50;2.30;;;1.98;;
48042;SDS011;33988;47.992;8.820;2022-12-07T12:28:34;2.30;;;1.90;;
48042;SDS011;33988;47.992;8.820;2022-12-07T12:34:03;2.90;;;1.88;;
48042;SDS011;33988;47.992;8.820;2022-12-07T12:36:57;3.88;;;2.92;;
48042;SDS011;33988;47.992;8.820;2022-12-07T12:39:25;5.32;;;3.50;;
48042;SDS011;33988;47.992;8.820;2022-12-07T12:41:57;6.20;;;4.28;;
48042;SDS011;33988;47.992;8.820;2022-12-07T12:47:02;5.07;;;3.53;;
48042;SDS011;33988;47.992;8.820;2022-12-07T12:55:15;4.00;;;2.83;;
48042;SDS011;33988;47.992;8.820;2022-12-07T12:57:52;5.07;;;3.58;;
48042;SDS011;33988;47.992;8.820;2022-12-07T13:00:46;4.32;;;3.10;;
48042;SDS011;33988;47.992;8.820;2022-12-07T13:03:55;4.97;;;3.42;;
48042;SDS011;33988;47.992;8.820;2022-12-07T13:08:53;7.05;;;4.13;;
48042;SDS011;33988;47.992;8.820;2022-12-07T13:11:38;4.55;;;3.28;;
48042;SDS011;33988;47.992;8.820;2022-12-07T13:20:00;4.22;;;2.80;;
48042;SDS011;33988;47.992;8.820;2022-12-07T13:22:43;5.32;;;3.03;;
48042;SDS011;33988;47.992;8.820;2022-12-07T13:30:58;5.53;;;3.35;;
48042;SDS011;33988;47.992;8.820;2022-12-07T13:33:50;6.18;;;3.33;;
48042;SDS011;33988;47.992;8.820;2022-12-07T13:36:19;5.05;;;3.22;;
48042;SDS011;33988;47.992;8.820;2022-12-07T13:38:54;5.00;;;3.38;;
48042;SDS011;33988;47.992;8.820;2022-12-07T13:41:29;5.40;;;3.60;;
48042;SDS011;33988;47.992;8.820;2022-12-07T13:44:00;6.10;;;3.42;;
48042;SDS011;33988;47.992;8.820;2022-12-07T13:46:53;4.82;;;2.92;;
48042;SDS011;33988;47.992;8.820;2022-12-07T13:49:46;4.78;;;3.22;;
48042;SDS011;33988;47.992;8.820;2022-12-07T13:52:24;5.10;;;3.15;;
48042;SDS011;33988;47.992;8.820;2022-12-07T13:57:39;4.63;;;3.30;;
48042;SDS011;33988;47.992;8.820;2022-12-07T14:00:15;4.90;;;3.10;;
48042;SDS011;33988;47.992;8.820;2022-12-07T14:03:19;5.45;;;3.22;;
48042;SDS011;33988;47.992;8.820;2022-12-07T14:08:41;5.18;;;3.30;;
48042;SDS011;33988;47.992;8.820;2022-12-07T14:11:11;4.80;;;3.30;;
48042;SDS011;33988;47.992;8.820;2022-12-07T14:16:34;6.43;;;3.22;;
48042;SDS011;33988;47.992;8.820;2022-12-07T14:19:06;5.40;;;3.25;;
48042;SDS011;33988;47.992;8.820;2022-12-07T14:27:58;5.38;;;3.30;;
48042;SDS011;33988;47.992;8.820;2022-12-07T14:30:28;8.85;;;4.50;;
48042;SDS011;33988;47.992;8.820;2022-12-07T14:33:04;5.65;;;3.75;;
48042;SDS011;33988;47.992;8.820;2022-12-07T14:35:31;7.25;;;4.45;;
48042;SDS011;33988;47.992;8.820;2022-12-07T14:37:58;6.18;;;4.55;;
48042;SDS011;33988;47.992;8.820;2022-12-07T14:40:27;5.53;;;3.40;;
48042;SDS011;33988;47.992;8.820;2022-12-07T14:43:05;6.25;;;4.03;;
48042;SDS011;33988;47.992;8.820;2022-12-07T14:45:38;5.47;;;3.42;;
48042;SDS011;33988;47.992;8.820;2022-12-07T14:48:12;4.43;;;3.13;;
48042;SDS011;33988;47.992;8.820;2022-12-07T14:51:05;6.03;;;3.85;;
48042;SDS011;33988;47.992;8.820;2022-12-07T14:53:54;5.97;;;3.35;;
48042;SDS011;33988;47.992;8.820;2022-12-07T14:56:28;5.72;;;3.22;;
48042;SDS011;33988;47.992;8.820;2022-12-07T14:58:55;4.78;;;2.90;;
48042;SDS011;33988;47.992;8.820;2022-12-07T15:01:24;5.55;;;2.78;;
48042;SDS011;33988;47.992;8.820;2022-12-07T15:03:51;3.30;;;2.45;;
48042;SDS011;33988;47.992;8.820;2022-12-07T15:06:22;3.38;;;2.63;;
48042;SDS011;33988;47.992;8.820;2022-12-07T15:08:52;3.03;;;2.30;;
48042;SDS011;33988;47.992;8.820;2022-12-07T15:11:21;3.80;;;2.50;;
48042;SDS011;33988;47.992;8.820;2022-12-07T15:13:48;4.05;;;2.35;;
48042;SDS011;33988;47.992;8.820;2022-12-07T15:16:37;3.72;;;2.00;;
48042;SDS011;33988;47.992;8.820;2022-12-07T15:19:27;8.43;;;4.57;;
48042;SDS011;33988;47.992;8.820;2022-12-07T15:21:55;5.78;;;3.70;;
48042;SDS011;33988;47.992;8.820;2022-12-07T15:24:26;11.07;;;3.97;;
48042;SDS011;33988;47.992;8.820;2022-12-07T15:26:53;5.82;;;3.97;;
48042;SDS011;33988;47.992;8.820;2022-12-07T15:29:20;4.32;;;2.90;;
48042;SDS011;33988;47.992;8.820;2022-12-07T15:31:50;5.03;;;3.25;;
48042;SDS011;33988;47.992;8.820;2022-12-07T15:34:25;4.50;;;3.13;;
48042;SDS011;33988;47.992;8.820;2022-12-07T15:37:05;4.65;;;2.78;;
48042;SDS011;33988;47.992;8.820;2022-12-07T15:39:33;7.47;;;3.53;;
48042;SDS011;33988;47.992;8.820;2022-12-07T15:42:03;5.53;;;3.75;;
48042;SDS011;33988;47.992;8.820;2022-12-07T15:44:32;4.60;;;3.20;;
48042;SDS011;33988;47.992;8.820;2022-12-07T15:47:20;5.57;;;2.60;;
48042;SDS011;33988;47.992;8.820;2022-12-07T15:49:47;4.57;;;2.88;;
48042;SDS011;33988;47.992;8.820;2022-12-07T15:52:15;3.90;;;2.90;;
48042;SDS011;33988;47.992;8.820;2022-12-07T15:54:42;3.58;;;2.30;;
48042;SDS011;33988;47.992;8.820;2022-12-07T15:57:11;4.40;;;2.75;;
48042;SDS011;33988;47.992;8.820;2022-12-07T15:59:38;3.40;;;2.35;;
48042;SDS011;33988;47.992;8.820;2022-12-07T16:02:09;2.97;;;2.17;;
48042;SDS011;33988;47.992;8.820;2022-12-07T16:04:38;2.80;;;2.17;;
48042;SDS011;33988;47.992;8.820;2022-12-07T16:07:08;5.38;;;2.72;;
48042;SDS011;33988;47.992;8.820;2022-12-07T16:09:37;3.08;;;2.15;;
48042;SDS011;33988;47.992;8.820;2022-12-07T16:12:10;2.90;;;2.10;;
48042;SDS011;33988;47.992;8.820;2022-12-07T16:14:38;2.67;;;1.95;;
48042;SDS011;33988;47.992;8.820;2022-12-07T16:17:09;2.73;;;1.93;;
48042;SDS011;33988;47.992;8.820;2022-12-07T16:19:37;1.60;;;1.50;;
48042;SDS011;33988;47.992;8.820;2022-12-07T16:22:04;3.22;;;1.95;;
48042;SDS011;33988;47.992;8.820;2022-12-07T16:24:34;4.43;;;1.73;;
48042;SDS011;33988;47.992;8.820;2022-12-07T16:27:01;2.75;;;2.28;;
48042;SDS011;33988;47.992;8.820;2022-12-07T16:29:28;3.60;;;2.65;;
48042;SDS011;33988;47.992;8.820;2022-12-07T16:31:55;2.45;;;1.85;;
48042;SDS011;33988;47.992;8.820;2022-12-07T16:34:24;3.08;;;2.28;;
48042;SDS011;33988;47.992;8.820;2022-12-07T16:36:54;5.57;;;2.28;;
48042;SDS011;33988;47.992;8.820;2022-12-07T16:39:32;3.50;;;2.60;;
48042;SDS011;33988;47.992;8.820;2022-12-07T16:42:02;5.32;;;3.33;;
48042;SDS011;33988;47.992;8.820;2022-12-07T16:44:29;5.68;;;3.67;;
48042;SDS011;33988;47.992;8.820;2022-12-07T16:46:57;5.90;;;3.10;;
48042;SDS011;33988;47.992;8.820;2022-12-07T16:49:27;5.13;;;3.30;;
48042;SDS011;33988;47.992;8.820;2022-12-07T16:51:54;3.42;;;2.70;;
48042;SDS011;33988;47.992;8.820;2022-12-07T16:54:43;3.80;;;2.65;;
48042;SDS011;33988;47.992;8.820;2022-12-07T16:57:16;3.45;;;2.53;;
48042;SDS011;33988;47.992;8.820;2022-12-07T16:59:49;3.67;;;2.58;;
48042;SDS011;33988;47.992;8.820;2022-12-07T17:02:23;3.55;;;2.13;;
48042;SDS011;33988;47.992;8.820;2022-12-07T17:04:52;3.05;;;2.30;;
48042;SDS011;33988;47.992;8.820;2022-12-07T17:07:19;3.50;;;2.60;;
48042;SDS011;33988;47.992;8.820;2022-12-07T17:09:49;2.97;;;2.05;;
48042;SDS011;33988;47.992;8.820;2022-12-07T17:12:18;3.28;;;2.15;;
48042;SDS011;33988;47.992;8.820;2022-12-07T17:14:53;3.40;;;2.20;;
48042;SDS011;33988;47.992;8.820;2022-12-07T17:17:38;5.60;;;3.00;;
48042;SDS011;33988;47.992;8.820;2022-12-07T17:20:08;7.38;;;2.97;;
48042;SDS011;33988;47.992;8.820;2022-12-07T17:22:35;6.13;;;3.55;;
48042;SDS011;33988;47.992;8.820;2022-12-07T17:25:03;8.38;;;4.03;;
48042;SDS011;33988;47.992;8.820;2022-12-07T17:27:31;8.73;;;3.90;;
48042;SDS011;33988;47.992;8.820;2022-12-07T17:30:02;7.57;;;4.10;;
48042;SDS011;33988;47.992;8.820;2022-12-07T17:32:31;8.07;;;4.25;;
48042;SDS011;33988;47.992;8.820;2022-12-07T17:35:00;6.70;;;4.40;;
48042;SDS011;33988;47.992;8.820;2022-12-07T17:40:01;6.40;;;3.50;;
48042;SDS011;33988;47.992;8.820;2022-12-07T17:42:29;10.27;;;3.85;;
48042;SDS011;33988;47.992;8.820;2022-12-07T17:45:03;7.07;;;4.45;;
48042;SDS011;33988;47.992;8.820;2022-12-07T17:47:32;5.55;;;3.85;;
48042;SDS011;33988;47.992;8.820;2022-12-07T17:49:59;7.82;;;4.82;;
48042;SDS011;33988;47.992;8.820;2022-12-07T17:52:32;7.05;;;4.95;;
48042;SDS011;33988;47.992;8.820;2022-12-07T17:55:21;7.05;;;5.03;;
48042;SDS011;33988;47.992;8.820;2022-12-07T17:57:50;6.75;;;4.85;;
48042;SDS011;33988;47.992;8.820;2022-12-07T18:00:18;6.80;;;4.35;;
48042;SDS011;33988;47.992;8.820;2022-12-07T18:02:47;6.00;;;4.05;;
48042;SDS011;33988;47.992;8.820;2022-12-07T18:05:17;4.93;;;3.92;;
48042;SDS011;33988;47.992;8.820;2022-12-07T18:07:44;5.65;;;3.83;;
48042;SDS011;33988;47.992;8.820;2022-12-07T18:10:13;8.40;;;5.47;;